Time;durP1;ratioP1;P1;durP2;ratioP2;P2;SDS_P1;SDS_P2;PMS_P1;PMS_P2;Temp;Humidity;BMP_temperature;BMP_pressure;BME280_temperature;BME280_humidity;BME280_pressure;Samples;Min_cycle;Max_cycle;Signal;HPM_P1;HPM_P2
2022/12/28 00:00:22;;;;;;;;;9.25;8.25;;;;;-147.17;100.00;-15917.19;4991453;28;51152;-55
2022/12/28 00:02:47;;;;;;;;;7.25;6.00;;;;;-147.17;100.00;-15917.19;4991556;28;51270;-55
2022/12/28 00:05:12;;;;;;;;;4.75;4.75;;;;;-147.17;100.00;-15917.19;4973374;28;52030;-55
2022/12/28 00:07:38;;;;;;;;;6.75;5.25;;;;;-147.17;100.00;-15917.19;4994507;28;51242;-55
2022/12/28 00:10:04;;;;;;;;;5.25;2.75;;;;;-147.17;100.00;-15917.19;4988205;28;50955;-55
2022/12/28 00:12:31;;;;;;;;;4.00;4.00;;;;;-147.17;100.00;-15917.19;4948888;28;52163;-55
2022/12/28 00:14:57;;;;;;;;;8.25;8.00;;;;;-147.17;100.00;-15917.19;4959321;28;51018;-55
2022/12/28 00:17:23;;;;;;;;;7.50;6.75;;;;;-147.17;100.00;-15917.19;4971573;28;51084;-55
2022/12/28 00:19:48;;;;;;;;;7.33;7.00;;;;;-147.17;100.00;-15917.19;4993021;28;51298;-53
2022/12/28 00:22:13;;;;;;;;;4.00;4.00;;;;;-147.17;100.00;-15917.19;4989243;28;51867;-55
2022/12/28 00:24:39;;;;;;;;;4.00;4.00;;;;;-147.17;100.00;-15917.19;4995336;28;51097;-53
2022/12/28 00:27:04;;;;;;;;;5.33;5.33;;;;;-147.17;100.00;-15917.19;4992368;28;51619;-55
2022/12/28 00:29:29;;;;;;;;;6.33;5.00;;;;;-147.17;100.00;-15917.19;4988499;28;51141;-55
2022/12/28 00:31:55;;;;;;;;;4.67;4.67;;;;;-147.17;100.00;-15917.19;4971260;28;52883;-55
2022/12/28 00:34:20;;;;;;;;;3.33;3.00;;;;;-147.17;100.00;-15917.19;4992809;28;51106;-55
2022/12/28 00:36:50;;;;;;;;;2.67;2.67;;;;;-147.17;100.00;-15917.19;4988807;28;51154;-55
2022/12/28 00:39:16;;;;;;;;;5.25;5.25;;;;;-147.17;100.00;-15917.19;5006141;28;51050;-55
2022/12/28 00:41:41;;;;;;;;;3.00;3.00;;;;;-147.17;100.00;-15917.19;4993651;28;54175;-55
2022/12/28 00:44:06;;;;;;;;;6.33;4.67;;;;;-147.17;100.00;-15917.19;5003424;28;50995;-55
2022/12/28 00:46:32;;;;;;;;;4.00;3.33;;;;;-147.17;100.00;-15917.19;4994900;28;51147;-55
2022/12/28 00:48:57;;;;;;;;;3.33;2.67;;;;;-147.17;100.00;-15917.19;5003788;28;51175;-55
2022/12/28 00:51:22;;;;;;;;;3.00;3.00;;;;;-147.17;100.00;-15917.19;5003460;28;51109;-55
2022/12/28 00:53:48;;;;;;;;;1.00;1.00;;;;;-147.17;100.00;-15917.19;5006238;28;50963;-55
2022/12/28 00:56:16;;;;;;;;;5.33;5.33;;;;;-147.17;100.00;-15917.19;4995233;28;51126;-55
2022/12/28 00:58:41;;;;;;;;;3.67;3.67;;;;;-147.17;100.00;-15917.19;5005324;28;51501;-54
2022/12/28 01:01:15;;;;;;;;;7.00;5.00;;;;;-147.17;100.00;-15917.19;4996314;28;51059;-54
2022/12/28 01:03:41;;;;;;;;;5.25;4.00;;;;;-147.17;100.00;-15917.19;5012752;28;51366;-54
2022/12/28 01:06:09;;;;;;;;;4.00;4.00;;;;;-147.17;100.00;-15917.19;5000069;28;51034;-55
2022/12/28 01:08:35;;;;;;;;;5.25;5.25;;;;;-147.17;100.00;-15917.19;5006874;28;51331;-54
2022/12/28 01:11:09;;;;;;;;;4.75;4.25;;;;;-147.17;100.00;-15917.19;4983782;28;51281;-54
2022/12/28 01:13:35;;;;;;;;;3.67;3.67;;;;;-147.17;100.00;-15917.19;4997285;28;51149;-54
2022/12/28 01:16:09;;;;;;;;;7.00;5.00;;;;;-147.17;100.00;-15917.19;5009097;28;51157;-55
2022/12/28 01:18:34;;;;;;;;;3.33;3.33;;;;;-147.17;100.00;-15917.19;5001292;28;50946;-54
2022/12/28 01:21:07;;;;;;;;;5.33;4.00;;;;;-147.17;100.00;-15917.19;4994284;28;50954;-55
2022/12/28 01:23:32;;;;;;;;;5.33;5.00;;;;;-147.17;100.00;-15917.19;4998584;28;51273;-55
2022/12/28 01:26:01;;;;;;;;;4.00;3.67;;;;;-147.17;100.00;-15917.19;4990109;28;51161;-54
2022/12/28 01:28:27;;;;;;;;;4.00;3.00;;;;;-147.17;100.00;-15917.19;4969628;28;50957;-55
2022/12/28 01:30:53;;;;;;;;;2.67;2.00;;;;;-147.17;100.00;-15917.19;4992351;28;50909;-54
2022/12/28 01:33:18;;;;;;;;;5.00;4.00;;;;;-147.17;100.00;-15917.19;4990453;28;51003;-55
2022/12/28 01:35:43;;;;;;;;;3.67;2.67;;;;;-147.17;100.00;-15917.19;4990561;28;51065;-55
2022/12/28 01:38:09;;;;;;;;;3.00;3.00;;;;;-147.17;100.00;-15917.19;4960256;28;51284;-54
2022/12/28 01:40:34;;;;;;;;;4.00;4.00;;;;;-147.17;100.00;-15917.19;4986570;28;51995;-53
2022/12/28 01:42:59;;;;;;;;;3.75;2.75;;;;;-147.17;100.00;-15917.19;4992876;28;51172;-55
2022/12/28 01:45:25;;;;;;;;;4.00;3.00;;;;;-147.17;100.00;-15917.19;4990654;28;51315;-56
2022/12/28 01:47:53;;;;;;;;;3.00;3.00;;;;;-147.17;100.00;-15917.19;4987997;28;51116;-56
2022/12/28 01:50:27;;;;;;;;;6.33;5.00;;;;;-147.17;100.00;-15917.19;4988581;28;51792;-54
2022/12/28 01:52:58;;;;;;;;;3.00;3.00;;;;;-147.17;100.00;-15917.19;4991085;28;51041;-55
2022/12/28 01:55:32;;;;;;;;;4.00;2.00;;;;;-147.17;100.00;-15917.19;4984025;28;51273;-54
2022/12/28 01:58:06;;;;;;;;;3.00;3.00;;;;;-147.17;100.00;-15917.19;4990349;28;50895;-55
2022/12/28 02:00:33;;;;;;;;;2.00;2.00;;;;;-147.17;100.00;-15917.19;4986630;28;51981;-54
2022/12/28 02:03:10;;;;;;;;;3.67;3.00;;;;;-147.17;100.00;-15917.19;4976753;28;51221;-54
2022/12/28 02:05:40;;;;;;;;;3.00;3.00;;;;;-147.17;100.00;-15917.19;4988455;28;51278;-55
2022/12/28 02:08:43;;;;;;;;;8.00;4.33;;;;;-147.17;100.00;-15917.19;4982939;28;50914;-55
2022/12/28 02:11:12;;;;;;;;;4.00;3.00;;;;;-147.17;100.00;-15917.19;4979050;28;52784;-56
2022/12/28 02:13:38;;;;;;;;;5.00;4.00;;;;;-147.17;100.00;-15917.19;4982373;28;50909;-54
2022/12/28 02:16:04;;;;;;;;;2.00;2.00;;;;;-147.17;100.00;-15917.19;4981599;28;51171;-54
2022/12/28 02:18:30;;;;;;;;;3.00;3.00;;;;;-147.17;100.00;-15917.19;4987659;28;51330;-56
2022/12/28 02:21:08;;;;;;;;;2.67;2.33;;;;;-147.17;100.00;-15917.19;4980444;28;52010;-54
2022/12/28 02:23:42;;;;;;;;;4.67;4.00;;;;;-147.17;100.00;-15917.19;4981263;28;50968;-54
2022/12/28 02:26:31;;;;;;;;;4.00;3.67;;;;;-147.17;100.00;-15917.19;4977914;28;51269;-55
2022/12/28 02:29:14;;;;;;;;;4.00;3.00;;;;;-147.17;100.00;-15917.19;4969386;28;51224;-56
2022/12/28 02:31:49;;;;;;;;;5.00;4.67;;;;;-147.17;100.00;-15917.19;4986242;28;51104;-55
2022/12/28 02:34:31;;;;;;;;;5.00;4.50;;;;;-147.17;100.00;-15917.19;4978860;28;51082;-55
2022/12/28 02:37:11;;;;;;;;;4.33;3.67;;;;;-147.17;100.00;-15917.19;4992905;28;51573;-56
2022/12/28 02:39:43;;;;;;;;;6.00;4.50;;;;;-147.17;100.00;-15917.19;4991538;28;51109;-55
2022/12/28 02:42:10;;;;;;;;;4.75;4.25;;;;;-147.17;100.00;-15917.19;4982277;28;51823;-55
2022/12/28 02:50:14;;;;;;;;;5.00;4.00;;;;;-147.17;100.00;-15917.19;4957152;28;51171;-54
2022/12/28 02:53:18;;;;;;;;;4.00;4.00;;;;;-147.17;100.00;-15917.19;4992288;28;52144;-56
2022/12/28 02:56:07;;;;;;;;;5.00;3.67;;;;;-147.17;100.00;-15917.19;4982725;28;51212;-55
2022/12/28 02:58:57;;;;;;;;;4.25;4.00;;;;;-147.17;100.00;-15917.19;4988527;28;50955;-54
2022/12/28 03:01:56;;;;;;;;;5.00;4.00;;;;;-147.17;100.00;-15917.19;4982769;28;51013;-55
2022/12/28 03:04:33;;;;;;;;;3.00;3.00;;;;;-147.17;100.00;-15917.19;4979502;28;50941;-55
2022/12/28 03:10:11;;;;;;;;;4.00;4.00;;;;;-147.17;100.00;-15917.19;4983358;28;51143;-55
2022/12/28 03:12:46;;;;;;;;;4.67;3.00;;;;;-147.17;100.00;-15917.19;4982335;28;51326;-56
2022/12/28 03:15:28;;;;;;;;;3.67;3.67;;;;;-147.17;100.00;-15917.19;4979397;28;51835;-55
2022/12/28 03:31:49;;;;;;;;;5.33;5.33;;;;;-147.17;100.00;-15917.19;4991255;28;51071;-54
2022/12/28 03:34:14;;;;;;;;;3.00;3.00;;;;;-147.17;100.00;-15917.19;4983370;28;52659;-55
2022/12/28 03:36:43;;;;;;;;;3.67;3.67;;;;;-147.17;100.00;-15917.19;4988369;28;50931;-54
2022/12/28 03:39:22;;;;;;;;;4.00;4.00;;;;;-147.17;100.00;-15917.19;4977428;28;51140;-54
2022/12/28 03:44:41;;;;;;;;;7.25;7.00;;;;;-147.17;100.00;-15917.19;4990221;28;51126;-55
2022/12/28 03:47:11;;;;;;;;;5.00;5.00;;;;;-147.17;100.00;-15917.19;4986231;28;51167;-55
2022/12/28 03:49:38;;;;;;;;;5.00;4.00;;;;;-147.17;100.00;-15917.19;4998734;28;51057;-55
2022/12/28 03:52:05;;;;;;;;;5.50;5.50;;;;;-147.17;100.00;-15917.19;4994511;28;50908;-55
2022/12/28 03:54:30;;;;;;;;;6.75;4.00;;;;;-147.17;100.00;-15917.19;4990199;28;51196;-55
2022/12/28 03:56:55;;;;;;;;;4.00;4.00;;;;;-147.17;100.00;-15917.19;4988209;28;51113;-55
2022/12/28 03:59:21;;;;;;;;;6.25;6.25;;;;;-147.17;100.00;-15917.19;4990148;28;51093;-55
2022/12/28 04:01:46;;;;;;;;;7.25;5.50;;;;;-147.17;100.00;-15917.19;4980462;28;51056;-55
2022/12/28 04:04:11;;;;;;;;;8.50;5.25;;;;;-147.17;100.00;-15917.19;4990149;28;51023;-54
2022/12/28 04:06:37;;;;;;;;;7.00;7.00;;;;;-147.17;100.00;-15917.19;4983616;28;51839;-55
2022/12/28 04:09:03;;;;;;;;;4.67;4.67;;;;;-147.17;100.00;-15917.19;4991774;28;51170;-55
2022/12/28 04:11:29;;;;;;;;;8.00;7.00;;;;;-147.17;100.00;-15917.19;4989618;28;50944;-55
2022/12/28 04:13:55;;;;;;;;;5.00;4.00;;;;;-147.17;100.00;-15917.19;4989407;28;51132;-54
2022/12/28 04:16:20;;;;;;;;;5.00;5.00;;;;;-147.17;100.00;-15917.19;4998567;28;51510;-55
2022/12/28 04:18:46;;;;;;;;;4.33;4.00;;;;;-147.17;100.00;-15917.19;4993966;28;51000;-55
2022/12/28 04:21:13;;;;;;;;;5.00;5.00;;;;;-147.17;100.00;-15917.19;4987908;28;51116;-56
2022/12/28 04:23:39;;;;;;;;;4.00;4.00;;;;;-147.17;100.00;-15917.19;4993651;28;51178;-55
2022/12/28 04:26:10;;;;;;;;;8.50;6.50;;;;;-147.17;100.00;-15917.19;4989525;28;51869;-55
2022/12/28 04:28:36;;;;;;;;;4.67;4.00;;;;;-147.17;100.00;-15917.19;4978674;28;51004;-55
2022/12/28 04:31:04;;;;;;;;;4.67;4.00;;;;;-147.17;100.00;-15917.19;4980185;28;51088;-54
2022/12/28 04:33:34;;;;;;;;;5.50;4.75;;;;;-147.17;100.00;-15917.19;4979774;28;51416;-56
2022/12/28 04:36:09;;;;;;;;;5.00;4.00;;;;;-147.17;100.00;-15917.19;4980828;28;51933;-55
2022/12/28 04:38:35;;;;;;;;;3.00;2.00;;;;;-147.17;100.00;-15917.19;4986262;28;50977;-56
2022/12/28 04:41:02;;;;;;;;;7.75;4.75;;;;;-147.17;100.00;-15917.19;4975581;28;50986;-55
2022/12/28 04:43:29;;;;;;;;;3.25;3.25;;;;;-147.17;100.00;-15917.19;4980280;28;51356;-55
2022/12/28 04:46:00;;;;;;;;;4.75;4.75;;;;;-147.17;100.00;-15917.19;4974500;28;52706;-55
2022/12/28 04:48:25;;;;;;;;;4.00;3.50;;;;;-147.17;100.00;-15917.19;4978796;28;51143;-55
2022/12/28 04:50:52;;;;;;;;;3.67;3.67;;;;;-147.17;100.00;-15917.19;4990021;28;51171;-55
2022/12/28 04:53:17;;;;;;;;;4.50;4.25;;;;;-147.17;100.00;-15917.19;4983101;28;50908;-55
2022/12/28 04:55:42;;;;;;;;;3.33;3.00;;;;;-147.17;100.00;-15917.19;4979294;28;51163;-55
2022/12/28 04:58:08;;;;;;;;;4.00;4.00;;;;;-147.17;100.00;-15917.19;4978413;28;51129;-55
2022/12/28 05:00:33;;;;;;;;;2.00;2.00;;;;;-147.17;100.00;-15917.19;4982236;28;51189;-55
2022/12/28 05:02:59;;;;;;;;;5.33;4.00;;;;;-147.17;100.00;-15917.19;4981043;28;51461;-54
2022/12/28 05:05:25;;;;;;;;;3.75;3.50;;;;;-147.17;100.00;-15917.19;4975919;28;51923;-54
2022/12/28 05:07:50;;;;;;;;;3.00;3.00;;;;;-147.17;100.00;-15917.19;4983453;28;51235;-55
2022/12/28 05:10:16;;;;;;;;;3.00;3.00;;;;;-147.17;100.00;-15917.19;4982274;28;51074;-54
2022/12/28 05:12:41;;;;;;;;;3.25;3.25;;;;;-147.17;100.00;-15917.19;4984769;28;51184;-56
2022/12/28 05:15:07;;;;;;;;;2.75;2.25;;;;;-147.17;100.00;-15917.19;4974036;28;50924;-56
2022/12/28 05:17:32;;;;;;;;;3.00;3.00;;;;;-147.17;100.00;-15917.19;4994528;28;51070;-55
2022/12/28 05:19:58;;;;;;;;;4.33;3.00;;;;;-147.17;100.00;-15917.19;4985321;28;51391;-56
2022/12/28 05:22:23;;;;;;;;;1.67;1.00;;;;;-147.17;100.00;-15917.19;5000653;28;51305;-55
2022/12/28 05:24:49;;;;;;;;;3.75;2.75;;;;;-147.17;100.00;-15917.19;4991969;28;51636;-55
2022/12/28 05:27:14;;;;;;;;;3.25;3.25;;;;;-147.17;100.00;-15917.19;4986851;28;52371;-56
2022/12/28 05:29:39;;;;;;;;;4.50;4.00;;;;;-147.17;100.00;-15917.19;4994205;28;51003;-55
2022/12/28 05:32:05;;;;;;;;;4.67;4.67;;;;;-147.17;100.00;-15917.19;5000360;28;51261;-57
2022/12/28 05:34:30;;;;;;;;;3.25;2.50;;;;;-147.17;100.00;-15917.19;4986479;28;51863;-56
2022/12/28 05:36:55;;;;;;;;;3.33;3.00;;;;;-147.17;100.00;-15917.19;4983562;28;50920;-56
2022/12/28 05:39:21;;;;;;;;;4.00;3.00;;;;;-147.17;100.00;-15917.19;4985733;28;51216;-55
2022/12/28 05:41:46;;;;;;;;;5.00;4.00;;;;;-147.17;100.00;-15917.19;4975001;28;51253;-55
2022/12/28 05:44:11;;;;;;;;;3.67;3.00;;;;;-147.17;100.00;-15917.19;4987696;28;51056;-55
2022/12/28 05:46:37;;;;;;;;;7.00;4.00;;;;;-147.17;100.00;-15917.19;4988565;28;51149;-55
2022/12/28 05:49:02;;;;;;;;;4.25;3.25;;;;;-147.17;100.00;-15917.19;4982374;28;51209;-55
2022/12/28 05:51:30;;;;;;;;;3.25;3.25;;;;;-147.17;100.00;-15917.19;4984687;28;50917;-54
2022/12/28 05:53:57;;;;;;;;;9.25;6.75;;;;;-147.17;100.00;-15917.19;4985332;28;53020;-54
2022/12/28 05:56:25;;;;;;;;;4.00;4.00;;;;;-147.17;100.00;-15917.19;4981279;28;51244;-55
2022/12/28 05:58:56;;;;;;;;;4.33;4.00;;;;;-147.17;100.00;-15917.19;4989942;28;51197;-55
2022/12/28 06:01:25;;;;;;;;;5.00;4.00;;;;;-147.17;100.00;-15917.19;4988259;28;50990;-55
2022/12/28 06:04:02;;;;;;;;;4.25;4.00;;;;;-147.17;100.00;-15917.19;4986656;28;51983;-54
2022/12/28 06:06:31;;;;;;;;;4.75;4.00;;;;;-147.17;100.00;-15917.19;4992609;28;50880;-55
2022/12/28 06:08:57;;;;;;;;;6.33;5.00;;;;;-147.17;100.00;-15917.19;4989750;28;51144;-54
2022/12/28 06:11:24;;;;;;;;;3.00;3.00;;;;;-147.17;100.00;-15917.19;4986841;28;51476;-55
2022/12/28 06:13:50;;;;;;;;;5.33;5.33;;;;;-147.17;100.00;-15917.19;4969194;28;53069;-55
2022/12/28 06:16:18;;;;;;;;;6.75;5.00;;;;;-147.17;100.00;-15917.19;4995906;28;51198;-54
2022/12/28 06:18:44;;;;;;;;;6.50;5.00;;;;;-147.17;100.00;-15917.19;4994476;28;51245;-53
2022/12/28 06:21:19;;;;;;;;;4.25;4.25;;;;;-147.17;100.00;-15917.19;4995580;28;51074;-56
2022/12/28 06:23:45;;;;;;;;;4.00;4.00;;;;;-147.17;100.00;-15917.19;4989058;28;51107;-53
2022/12/28 06:26:14;;;;;;;;;3.75;3.50;;;;;-147.17;100.00;-15917.19;4984326;28;51215;-53
2022/12/28 06:28:40;;;;;;;;;4.50;4.50;;;;;-147.17;100.00;-15917.19;4988237;28;51014;-55
2022/12/28 06:31:31;;;;;;;;;3.00;3.00;;;;;-147.17;100.00;-15917.19;4969674;28;51412;-53
2022/12/28 06:33:58;;;;;;;;;5.00;3.00;;;;;-147.17;100.00;-15917.19;4985775;28;52382;-54
2022/12/28 06:36:27;;;;;;;;;7.00;5.00;;;;;-147.17;100.00;-15917.19;4986083;28;51082;-54
2022/12/28 06:38:55;;;;;;;;;7.75;6.75;;;;;-147.17;100.00;-15917.19;4977413;28;51088;-54
2022/12/28 06:41:21;;;;;;;;;7.00;5.00;;;;;-147.17;100.00;-15917.19;4991970;28;51349;-55
2022/12/28 06:43:49;;;;;;;;;3.50;3.50;;;;;-147.17;100.00;-15917.19;4988917;28;51133;-54
2022/12/28 06:46:16;;;;;;;;;3.50;3.00;;;;;-147.17;100.00;-15917.19;4983054;28;51098;-55
2022/12/28 06:48:42;;;;;;;;;7.00;4.00;;;;;-147.17;100.00;-15917.19;4985989;28;50982;-54
2022/12/28 06:51:15;;;;;;;;;4.00;4.00;;;;;-147.17;100.00;-15917.19;4981243;28;51193;-54
2022/12/28 06:53:41;;;;;;;;;4.00;4.00;;;;;-147.17;100.00;-15917.19;4983654;28;52039;-55
2022/12/28 06:56:11;;;;;;;;;7.00;7.00;;;;;-147.17;100.00;-15917.19;4990834;28;51169;-56
2022/12/28 06:58:37;;;;;;;;;4.00;4.00;;;;;-147.17;100.00;-15917.19;4970774;28;50992;-56
2022/12/28 07:01:06;;;;;;;;;4.33;4.33;;;;;-147.17;100.00;-15917.19;4984025;28;51157;-54
2022/12/28 07:03:31;;;;;;;;;4.00;4.00;;;;;-147.17;100.00;-15917.19;4992936;28;52221;-55
2022/12/28 07:06:01;;;;;;;;;5.00;5.00;;;;;-147.17;100.00;-15917.19;4992220;28;52754;-55
2022/12/28 07:08:27;;;;;;;;;6.00;4.00;;;;;-147.17;100.00;-15917.19;4989954;28;51193;-55
2022/12/28 07:10:52;;;;;;;;;3.00;3.00;;;;;-147.17;100.00;-15917.19;4991161;28;51193;-54
2022/12/28 07:13:18;;;;;;;;;7.33;4.67;;;;;-147.17;100.00;-15917.19;4997201;28;51178;-56
2022/12/28 07:15:43;;;;;;;;;3.25;3.25;;;;;-147.17;100.00;-15917.19;4993507;28;50939;-55
2022/12/28 07:18:09;;;;;;;;;5.25;4.25;;;;;-147.17;100.00;-15917.19;4987877;28;51410;-55
2022/12/28 07:20:34;;;;;;;;;6.00;4.25;;;;;-147.17;100.00;-15917.19;4993981;28;51047;-58
2022/12/28 07:22:59;;;;;;;;;3.00;2.33;;;;;-147.17;100.00;-15917.19;4992238;28;52242;-55
2022/12/28 07:25:25;;;;;;;;;4.33;4.33;;;;;-147.17;100.00;-15917.19;4990624;28;51027;-55
2022/12/28 07:27:50;;;;;;;;;4.67;4.33;;;;;-147.17;100.00;-15917.19;4991088;28;50973;-56
2022/12/28 07:30:16;;;;;;;;;5.33;5.00;;;;;-147.17;100.00;-15917.19;4997800;28;51141;-55
2022/12/28 07:32:41;;;;;;;;;7.00;4.75;;;;;-147.17;100.00;-15917.19;4992249;28;52117;-55
2022/12/28 07:35:07;;;;;;;;;5.00;5.00;;;;;-147.17;100.00;-15917.19;4993609;28;50948;-55
2022/12/28 07:37:32;;;;;;;;;4.00;3.00;;;;;-147.17;100.00;-15917.19;4973606;28;50989;-55
2022/12/28 07:39:57;;;;;;;;;8.00;7.00;;;;;-147.17;100.00;-15917.19;4989864;28;51400;-60
2022/12/28 07:42:23;;;;;;;;;5.00;4.67;;;;;-147.17;100.00;-15917.19;4993520;28;51980;-55
2022/12/28 07:44:48;;;;;;;;;8.67;7.67;;;;;-147.17;100.00;-15917.19;4992303;28;51178;-54
2022/12/28 07:47:14;;;;;;;;;6.25;5.00;;;;;-147.17;100.00;-15917.19;4993162;28;51595;-55
2022/12/28 07:49:40;;;;;;;;;8.00;7.25;;;;;-147.17;100.00;-15917.19;4976971;28;51213;-56
2022/12/28 07:52:05;;;;;;;;;9.50;9.50;;;;;-147.17;100.00;-15917.19;4990013;28;51958;-55
2022/12/28 07:54:30;;;;;;;;;7.00;7.00;;;;;-147.17;100.00;-15917.19;4993239;28;51225;-54
2022/12/28 07:56:56;;;;;;;;;5.00;4.00;;;;;-147.17;100.00;-15917.19;4957379;28;51715;-55
2022/12/28 07:59:22;;;;;;;;;8.50;6.75;;;;;-147.17;100.00;-15917.19;4988861;28;51226;-55
2022/12/28 08:01:49;;;;;;;;;3.67;3.67;;;;;-147.17;100.00;-15917.19;4973062;28;52795;-55
2022/12/28 08:04:17;;;;;;;;;5.00;5.00;;;;;-147.17;100.00;-15917.19;4973140;28;51366;-54
2022/12/28 08:06:44;;;;;;;;;4.33;3.00;;;;;-147.17;100.00;-15917.19;4973110;28;52356;-54
2022/12/28 08:09:11;;;;;;;;;4.75;4.75;;;;;-147.17;100.00;-15917.19;4971871;28;53761;-55
2022/12/28 08:11:42;;;;;;;;;4.00;4.00;;;;;-147.17;100.00;-15917.19;4972804;28;51885;-55
2022/12/28 08:14:09;;;;;;;;;6.00;5.50;;;;;-147.17;100.00;-15917.19;4973707;28;51192;-55
2022/12/28 08:16:40;;;;;;;;;4.67;4.67;;;;;-147.17;100.00;-15917.19;4972620;28;51313;-56
2022/12/28 08:19:06;;;;;;;;;7.50;4.25;;;;;-147.17;100.00;-15917.19;4971935;28;51138;-56
2022/12/28 08:21:41;;;;;;;;;5.00;4.67;;;;;-147.17;100.00;-15917.19;4972910;28;51142;-55
2022/12/28 08:24:08;;;;;;;;;4.00;4.00;;;;;-147.17;100.00;-15917.19;4973860;28;51137;-55
2022/12/28 08:26:39;;;;;;;;;5.00;5.00;;;;;-147.17;100.00;-15917.19;4971589;28;51358;-55
2022/12/28 08:29:08;;;;;;;;;4.00;4.00;;;;;-147.17;100.00;-15917.19;4973072;28;51495;-56
2022/12/28 08:31:36;;;;;;;;;4.00;4.00;;;;;-147.17;100.00;-15917.19;4965038;28;52233;-55
2022/12/28 08:34:02;;;;;;;;;4.00;4.00;;;;;-147.17;100.00;-15917.19;4973240;28;51256;-55
2022/12/28 08:36:29;;;;;;;;;11.25;9.75;;;;;-147.17;100.00;-15917.19;4972327;28;51193;-55
2022/12/28 08:38:56;;;;;;;;;5.33;4.33;;;;;-147.17;100.00;-15917.19;4959713;28;51518;-56
2022/12/28 08:41:22;;;;;;;;;4.25;4.25;;;;;-147.17;100.00;-15917.19;4957398;28;52854;-54
2022/12/28 08:43:49;;;;;;;;;3.33;3.33;;;;;-147.17;100.00;-15917.19;4972161;28;51249;-55
2022/12/28 08:46:16;;;;;;;;;3.33;3.33;;;;;-147.17;100.00;-15917.19;4970834;28;51427;-56
2022/12/28 08:48:42;;;;;;;;;4.00;4.00;;;;;-147.17;100.00;-15917.19;4974616;28;51519;-55
2022/12/28 08:51:11;;;;;;;;;5.67;5.00;;;;;-147.17;100.00;-15917.19;4966362;28;54036;-55
2022/12/28 08:53:37;;;;;;;;;4.00;4.00;;;;;-147.17;100.00;-15917.19;4972580;28;51109;-55
2022/12/28 08:56:09;;;;;;;;;3.33;3.00;;;;;-147.17;100.00;-15917.19;4974847;28;51204;-55
2022/12/28 08:58:35;;;;;;;;;3.00;3.00;;;;;-147.17;100.00;-15917.19;4973501;28;51393;-54
2022/12/28 09:01:25;;;;;;;;;4.67;4.67;;;;;-147.17;100.00;-15917.19;4974137;28;52788;-57
2022/12/28 09:03:53;;;;;;;;;4.33;3.67;;;;;-147.17;100.00;-15917.19;4966103;28;51247;-54
2022/12/28 09:06:22;;;;;;;;;3.00;3.00;;;;;-147.17;100.00;-15917.19;4972349;28;51240;-54
2022/12/28 09:08:49;;;;;;;;;1.33;1.33;;;;;-147.17;100.00;-15917.19;4973023;28;51308;-55
2022/12/28 09:11:15;;;;;;;;;5.00;4.67;;;;;-147.17;100.00;-15917.19;4972468;28;53268;-55
2022/12/28 09:13:40;;;;;;;;;4.00;3.00;;;;;-147.17;100.00;-15917.19;4970873;28;51265;-56
2022/12/28 09:16:08;;;;;;;;;4.00;3.00;;;;;-147.17;100.00;-15917.19;4972232;28;51137;-53
2022/12/28 09:18:34;;;;;;;;;4.00;4.00;;;;;-147.17;100.00;-15917.19;4973234;28;51519;-55
2022/12/28 09:21:12;;;;;;;;;5.00;3.67;;;;;-147.17;100.00;-15917.19;4970676;28;51809;-54
2022/12/28 09:23:38;;;;;;;;;5.00;5.00;;;;;-147.17;100.00;-15917.19;4972098;28;51151;-55
2022/12/28 09:26:12;;;;;;;;;4.00;4.00;;;;;-147.17;100.00;-15917.19;4969924;28;51254;-52
2022/12/28 09:28:37;;;;;;;;;5.00;5.00;;;;;-147.17;100.00;-15917.19;4973829;28;53577;-54
2022/12/28 09:31:07;;;;;;;;;3.33;3.33;;;;;-147.17;100.00;-15917.19;4974030;28;51766;-54
2022/12/28 09:36:19;;;;;;;;;5.00;4.33;;;;;-147.17;100.00;-15917.19;4975452;28;51259;-55
2022/12/28 09:38:45;;;;;;;;;3.33;3.33;;;;;-147.17;100.00;-15917.19;4977577;28;51382;-56
2022/12/28 09:41:44;;;;;;;;;4.67;4.67;;;;;-147.17;100.00;-15917.19;4978624;28;52223;-54
2022/12/28 09:44:14;;;;;;;;;4.00;3.00;;;;;-147.17;100.00;-15917.19;4979699;28;51146;-54
2022/12/28 09:46:46;;;;;;;;;4.67;4.67;;;;;-147.17;100.00;-15917.19;4979856;28;51171;-55
2022/12/28 09:49:15;;;;;;;;;4.00;4.00;;;;;-147.17;100.00;-15917.19;4976296;28;51145;-55
2022/12/28 09:51:49;;;;;;;;;5.00;4.33;;;;;-147.17;100.00;-15917.19;4973923;28;51221;-55
2022/12/28 09:54:15;;;;;;;;;4.33;4.33;;;;;-147.17;100.00;-15917.19;4973466;28;51228;-55
2022/12/28 09:56:42;;;;;;;;;4.00;3.67;;;;;-147.17;100.00;-15917.19;4967318;28;51434;-54
2022/12/28 09:59:15;;;;;;;;;5.00;5.00;;;;;-147.17;100.00;-15917.19;4979866;28;51491;-55
2022/12/28 10:01:43;;;;;;;;;4.33;4.00;;;;;-147.17;100.00;-15917.19;4980418;28;51397;-53
2022/12/28 10:04:11;;;;;;;;;6.00;6.00;;;;;-147.17;100.00;-15917.19;4966890;28;51234;-55
2022/12/28 10:06:37;;;;;;;;;4.33;3.33;;;;;-147.17;100.00;-15917.19;4978095;28;53365;-56
2022/12/28 10:09:09;;;;;;;;;5.00;4.75;;;;;-147.17;100.00;-15917.19;4972944;28;52156;-55
2022/12/28 10:11:39;;;;;;;;;3.67;3.67;;;;;-147.17;100.00;-15917.19;4959906;28;51458;-56
2022/12/28 10:14:27;;;;;;;;;7.67;6.00;;;;;-147.17;100.00;-15917.19;4956333;28;51214;-56
2022/12/28 10:16:53;;;;;;;;;4.33;4.00;;;;;-147.17;100.00;-15917.19;4973970;28;51128;-55
2022/12/28 10:19:23;;;;;;;;;4.00;4.00;;;;;-147.17;100.00;-15917.19;4972117;28;51153;-55
2022/12/28 10:22:03;;;;;;;;;5.00;4.33;;;;;-147.17;100.00;-15917.19;4971603;28;51979;-55
2022/12/28 10:24:29;;;;;;;;;7.00;5.67;;;;;-147.17;100.00;-15917.19;4972504;28;51273;-54
2022/12/28 10:26:57;;;;;;;;;3.00;3.00;;;;;-147.17;100.00;-15917.19;4971546;28;51194;-56
2022/12/28 10:29:24;;;;;;;;;5.00;4.00;;;;;-147.17;100.00;-15917.19;4973711;28;53606;-54
2022/12/28 10:32:03;;;;;;;;;4.67;4.00;;;;;-147.17;100.00;-15917.19;4970476;28;51988;-52
2022/12/28 10:34:31;;;;;;;;;4.00;4.00;;;;;-147.17;100.00;-15917.19;4973782;28;51358;-55
2022/12/28 10:37:07;;;;;;;;;4.67;4.00;;;;;-147.17;100.00;-15917.19;4973244;28;51507;-54
2022/12/28 10:39:33;;;;;;;;;4.00;3.00;;;;;-147.17;100.00;-15917.19;4972760;28;51513;-52
2022/12/28 10:41:59;;;;;;;;;3.00;3.00;;;;;-147.17;100.00;-15917.19;4970518;28;53169;-55
2022/12/28 10:44:33;;;;;;;;;5.00;4.00;;;;;-147.17;100.00;-15917.19;4971900;28;53066;-55
2022/12/28 10:47:03;;;;;;;;;3.67;3.00;;;;;-147.17;100.00;-15917.19;4971876;28;51246;-58
2022/12/28 10:49:36;;;;;;;;;4.33;3.00;;;;;-147.17;100.00;-15917.19;4971405;28;51182;-55
2022/12/28 10:52:27;;;;;;;;;4.00;3.00;;;;;-147.17;100.00;-15917.19;4971183;28;51425;-53
2022/12/28 10:54:53;;;;;;;;;3.00;3.00;;;;;-147.17;100.00;-15917.19;4972895;28;51277;-55
2022/12/28 10:57:25;;;;;;;;;5.00;5.00;;;;;-147.17;100.00;-15917.19;4971294;28;51368;-55
2022/12/28 10:59:50;;;;;;;;;6.00;5.00;;;;;-147.17;100.00;-15917.19;4972822;28;51226;-55
2022/12/28 11:02:31;;;;;;;;;4.00;4.00;;;;;-147.17;100.00;-15917.19;4970619;28;51783;-53
2022/12/28 11:05:02;;;;;;;;;6.67;5.00;;;;;-147.17;100.00;-15917.19;4973046;28;51164;-55
2022/12/28 11:07:33;;;;;;;;;2.00;2.00;;;;;-147.17;100.00;-15917.19;4972753;28;51285;-55
2022/12/28 11:10:21;;;;;;;;;3.67;3.00;;;;;-147.17;100.00;-15917.19;4971647;28;51524;-56
2022/12/28 11:12:48;;;;;;;;;6.00;6.00;;;;;-147.17;100.00;-15917.19;4966564;28;51889;-55
2022/12/28 11:15:15;;;;;;;;;4.00;3.67;;;;;-147.17;100.00;-15917.19;4971598;28;51431;-56
2022/12/28 11:17:42;;;;;;;;;3.00;3.00;;;;;-147.17;100.00;-15917.19;4972376;28;51260;-54
2022/12/28 11:20:17;;;;;;;;;3.00;3.00;;;;;-147.17;100.00;-15917.19;4972468;28;51597;-54
2022/12/28 11:22:43;;;;;;;;;2.00;1.67;;;;;-147.17;100.00;-15917.19;4971698;28;52816;-55
2022/12/28 11:25:14;;;;;;;;;4.67;4.00;;;;;-147.17;100.00;-15917.19;4971639;28;51190;-55
2022/12/28 11:27:40;;;;;;;;;5.00;5.00;;;;;-147.17;100.00;-15917.19;4970882;28;51300;-52
2022/12/28 11:30:08;;;;;;;;;3.00;3.00;;;;;-147.17;100.00;-15917.19;4970100;28;51187;-55
2022/12/28 11:32:45;;;;;;;;;3.67;3.67;;;;;-147.17;100.00;-15917.19;4970155;28;51348;-58
2022/12/28 11:35:20;;;;;;;;;2.00;2.00;;;;;-147.17;100.00;-15917.19;4974354;28;51261;-55
2022/12/28 11:37:50;;;;;;;;;4.33;4.00;;;;;-147.17;100.00;-15917.19;4966399;28;51304;-55